Time;durP1;ratioP1;P1;durP2;ratioP2;P2;SDS_P1;SDS_P2;PMS_P1;PMS_P2;Temp;Humidity;BMP_temperature;BMP_pressure;BME280_temperature;BME280_humidity;BME280_pressure;Samples;Min_cycle;Max_cycle;Signal;HPM_P1;HPM_P2
2022/11/21 00:00:36;;;;;;;12.43;3.30;;;7.90;99.90;;;;;;5112433;28;20411;-77
2022/11/21 00:03:02;;;;;;;8.43;2.90;;;7.90;99.90;;;;;;5111324;28;20188;-76
2022/11/21 00:05:28;;;;;;;9.37;2.60;;;7.90;99.90;;;;;;5112585;28;20165;-77
2022/11/21 00:07:54;;;;;;;8.30;2.70;;;8.00;99.90;;;;;;5112642;28;20201;-77
2022/11/21 00:10:20;;;;;;;9.33;2.07;;;7.90;99.90;;;;;;5112556;28;20446;-76
2022/11/21 00:12:46;;;;;;;10.03;3.57;;;7.90;99.90;;;;;;5111205;28;20462;-75
2022/11/21 00:15:11;;;;;;;14.90;3.87;;;7.90;99.90;;;;;;5112271;28;20164;-76
2022/11/21 00:17:37;;;;;;;9.03;2.87;;;7.90;99.90;;;;;;5112469;28;20177;-78
2022/11/21 00:20:02;;;;;;;10.00;2.20;;;8.00;99.90;;;;;;5112618;28;20169;-77
2022/11/21 00:22:30;;;;;;;17.23;2.90;;;7.90;99.90;;;;;;5112088;28;20204;-76
2022/11/21 00:24:55;;;;;;;12.97;2.70;;;7.90;99.90;;;;;;5112267;28;20157;-77
2022/11/21 00:27:21;;;;;;;9.03;2.57;;;7.90;99.90;;;;;;5112387;28;20442;-74
2022/11/21 00:29:46;;;;;;;4.27;2.03;;;7.80;99.90;;;;;;5111893;28;20169;-74
2022/11/21 00:32:12;;;;;;;3.10;2.80;;;7.80;99.90;;;;;;5112298;28;20207;-75
2022/11/21 00:34:37;;;;;;;7.00;2.63;;;7.80;99.90;;;;;;5114233;28;20214;-75
2022/11/21 00:37:03;;;;;;;5.73;2.53;;;7.80;99.90;;;;;;5116661;28;20506;-74
2022/11/21 00:39:28;;;;;;;4.60;2.00;;;7.80;99.90;;;;;;5116582;28;20695;-75
2022/11/21 00:41:54;;;;;;;7.60;3.10;;;7.70;99.90;;;;;;5116503;28;20187;-74
2022/11/21 00:44:19;;;;;;;17.43;3.53;;;7.70;99.90;;;;;;5116297;28;20172;-74
2022/11/21 00:46:45;;;;;;;11.40;4.40;;;7.70;99.90;;;;;;5116212;28;20176;-74
2022/11/21 00:49:10;;;;;;;5.03;2.60;;;7.60;99.90;;;;;;5116115;28;20657;-75
2022/11/21 00:51:36;;;;;;;5.17;2.23;;;7.50;99.90;;;;;;5116306;28;20188;-74
2022/11/21 00:54:01;;;;;;;8.90;3.47;;;7.50;99.90;;;;;;5115074;28;20164;-74
2022/11/21 00:56:27;;;;;;;4.13;2.83;;;7.50;99.90;;;;;;5116074;28;20184;-74
2022/11/21 00:58:52;;;;;;;6.03;2.00;;;7.50;99.90;;;;;;5116030;28;20207;-74
2022/11/21 01:01:18;;;;;;;6.63;2.30;;;7.50;99.90;;;;;;5114898;28;20185;-74
2022/11/21 01:03:45;;;;;;;9.60;3.40;;;7.50;99.90;;;;;;5115943;28;20177;-74
2022/11/21 01:06:12;;;;;;;6.03;2.53;;;7.40;99.90;;;;;;5115804;28;20160;-74
2022/11/21 01:08:40;;;;;;;5.33;2.43;;;7.40;99.90;;;;;;5116129;28;20875;-75
2022/11/21 01:11:08;;;;;;;7.90;2.60;;;7.40;99.90;;;;;;5115995;28;20394;-75
2022/11/21 01:13:34;;;;;;;17.00;4.13;;;7.40;99.90;;;;;;5115747;28;20414;-75
2022/11/21 01:16:09;;;;;;;10.00;3.30;;;7.40;99.90;;;;;;5115659;28;20410;-74
2022/11/21 01:18:35;;;;;;;3.57;1.67;;;7.50;99.90;;;;;;5115932;28;20433;-74
2022/11/21 01:21:06;;;;;;;6.07;2.07;;;7.50;99.90;;;;;;5115723;28;20430;-74
2022/11/21 01:23:33;;;;;;;10.10;2.70;;;7.60;99.90;;;;;;5115716;28;20271;-74
2022/11/21 01:26:03;;;;;;;4.93;2.13;;;7.50;99.90;;;;;;5115334;28;20419;-75
2022/11/21 01:28:29;;;;;;;5.13;2.23;;;7.50;99.90;;;;;;5115639;28;20461;-75
2022/11/21 01:31:01;;;;;;;9.23;3.10;;;7.50;99.90;;;;;;5115717;28;20485;-74
2022/11/21 01:33:26;;;;;;;7.07;2.33;;;7.50;99.90;;;;;;5115694;28;20395;-74
2022/11/21 01:35:52;;;;;;;13.30;3.43;;;7.50;99.90;;;;;;5115385;28;20490;-75
2022/11/21 01:38:17;;;;;;;7.27;2.27;;;7.50;99.90;;;;;;5115338;28;20176;-73
2022/11/21 01:40:43;;;;;;;5.77;2.10;;;7.50;99.90;;;;;;5115521;28;20169;-74
2022/11/21 01:43:12;;;;;;;6.23;2.60;;;7.50;99.90;;;;;;5115324;28;20195;-73
2022/11/21 01:46:04;;;;;;;11.33;2.87;;;7.50;99.90;;;;;;5113784;28;20241;-74
2022/11/21 01:48:32;;;;;;;5.87;1.93;;;7.60;99.90;;;;;;5114931;28;20989;-74
2022/11/21 01:51:04;;;;;;;8.03;2.33;;;7.50;99.90;;;;;;5112924;28;20415;-75
2022/11/21 01:53:30;;;;;;;21.13;3.37;;;7.50;99.90;;;;;;5114669;28;20391;-74
2022/11/21 01:55:55;;;;;;;14.00;2.80;;;7.50;99.90;;;;;;5114364;28;20451;-74
2022/11/21 01:58:22;;;;;;;3.53;1.93;;;7.50;99.90;;;;;;5114598;28;20161;-75
2022/11/21 02:00:48;;;;;;;3.10;2.07;;;7.50;99.90;;;;;;5113515;28;20559;-74
2022/11/21 02:03:19;;;;;;;5.00;1.93;;;7.40;99.90;;;;;;5114327;28;20533;-77
2022/11/21 02:05:45;;;;;;;16.57;2.10;;;7.40;99.90;;;;;;5115529;28;20399;-75
2022/11/21 02:08:19;;;;;;;5.00;2.13;;;7.30;99.90;;;;;;5114708;28;20494;-75
2022/11/21 02:10:55;;;;;;;10.00;2.60;;;7.20;99.90;;;;;;5115996;28;20443;-75
2022/11/21 02:13:21;;;;;;;3.50;1.63;;;7.20;99.90;;;;;;5114477;28;20905;-77
2022/11/21 02:15:47;;;;;;;9.10;2.20;;;7.10;99.90;;;;;;5115546;28;20401;-75
2022/11/21 02:18:13;;;;;;;3.30;2.30;;;7.20;99.90;;;;;;5115710;28;21316;-77
2022/11/21 02:20:46;;;;;;;6.33;2.57;;;7.10;99.90;;;;;;5115419;28;20171;-76
2022/11/21 02:23:40;;;;;;;8.67;2.40;;;7.10;99.90;;;;;;5115663;28;20201;-76
2022/11/21 02:26:06;;;;;;;7.53;2.17;;;7.10;99.90;;;;;;5107500;28;20423;-76
2022/11/21 02:28:32;;;;;;;7.33;2.13;;;7.10;99.90;;;;;;5115779;28;20446;-76
2022/11/21 02:30:57;;;;;;;4.07;1.70;;;7.10;99.90;;;;;;5115389;28;20871;-74
2022/11/21 02:33:23;;;;;;;10.10;1.70;;;7.10;99.90;;;;;;5113179;28;20169;-74
2022/11/21 02:35:56;;;;;;;8.00;1.80;;;7.20;99.90;;;;;;5112791;28;20164;-75
2022/11/21 02:38:26;;;;;;;3.60;1.97;;;7.20;99.90;;;;;;5114255;27;20587;-75
2022/11/21 02:41:15;;;;;;;7.83;2.20;;;7.20;99.90;;;;;;5114330;28;20391;-75
2022/11/21 02:43:42;;;;;;;7.80;1.50;;;7.20;99.90;;;;;;5114231;28;20394;-74
2022/11/21 02:46:08;;;;;;;7.40;1.73;;;7.20;99.90;;;;;;5113590;28;20483;-75
2022/11/21 02:48:36;;;;;;;5.13;2.33;;;7.20;99.90;;;;;;5114154;28;20454;-74
2022/11/21 02:51:01;;;;;;;7.07;1.87;;;7.10;99.90;;;;;;5113850;28;20172;-74
2022/11/21 02:53:27;;;;;;;4.47;2.57;;;7.10;99.90;;;;;;5112765;28;20403;-74
2022/11/21 02:55:52;;;;;;;2.80;1.53;;;7.00;99.90;;;;;;5113646;28;20165;-75
2022/11/21 02:58:18;;;;;;;7.27;1.80;;;6.90;99.90;;;;;;5113677;28;20173;-74
2022/11/21 03:00:44;;;;;;;6.37;2.17;;;6.80;99.90;;;;;;5113833;28;20171;-74
2022/11/21 03:03:09;;;;;;;4.33;1.73;;;6.70;99.90;;;;;;5113488;28;20430;-74
2022/11/21 03:05:36;;;;;;;6.27;1.90;;;6.70;99.90;;;;;;5112329;28;20541;-75
2022/11/21 03:08:02;;;;;;;7.57;2.70;;;6.70;99.90;;;;;;5113590;28;20188;-74
2022/11/21 03:10:27;;;;;;;5.90;2.47;;;6.70;99.90;;;;;;5113633;28;20744;-74
2022/11/21 03:12:59;;;;;;;11.40;2.50;;;6.70;99.90;;;;;;5113559;28;20426;-75
2022/11/21 03:15:26;;;;;;;9.13;2.40;;;6.80;99.90;;;;;;5113284;28;20171;-75
2022/11/21 03:17:52;;;;;;;5.07;1.60;;;6.90;99.90;;;;;;5113732;28;20403;-74
2022/11/21 03:20:17;;;;;;;10.43;3.80;;;6.90;99.90;;;;;;5113504;28;20817;-74
2022/11/21 03:22:43;;;;;;;9.20;2.30;;;7.00;99.90;;;;;;5112007;28;20304;-75
2022/11/21 03:25:08;;;;;;;13.30;2.10;;;7.00;99.90;;;;;;5112927;28;20222;-75
2022/11/21 03:27:34;;;;;;;7.87;2.13;;;7.00;99.90;;;;;;5113152;28;20196;-74
2022/11/21 03:29:59;;;;;;;7.37;3.13;;;7.00;99.90;;;;;;5113431;28;20199;-75
2022/11/21 03:32:25;;;;;;;2.57;1.50;;;7.10;99.90;;;;;;5112951;28;20271;-75
2022/11/21 03:34:50;;;;;;;5.10;1.70;;;7.10;99.90;;;;;;5111695;28;20563;-74
2022/11/21 03:37:16;;;;;;;8.10;2.33;;;7.20;99.90;;;;;;5113346;28;20168;-76
2022/11/21 03:39:41;;;;;;;4.50;2.57;;;7.10;99.90;;;;;;5114467;28;20196;-75
2022/11/21 03:42:07;;;;;;;10.77;2.63;;;7.20;99.90;;;;;;5114365;28;20185;-77
2022/11/21 03:44:32;;;;;;;4.30;1.53;;;7.10;99.90;;;;;;5114025;28;20164;-76
2022/11/21 03:46:58;;;;;;;4.20;2.10;;;7.10;99.90;;;;;;5114280;28;20188;-77
2022/11/21 03:49:23;;;;;;;5.10;2.47;;;7.10;99.90;;;;;;5112557;28;20172;-77
2022/11/21 03:51:49;;;;;;;5.40;2.90;;;7.10;99.90;;;;;;5113840;28;20189;-76
2022/11/21 03:54:14;;;;;;;4.30;2.00;;;7.10;99.90;;;;;;5113639;28;20169;-76
2022/11/21 03:56:40;;;;;;;9.13;1.90;;;7.20;99.90;;;;;;5113868;28;20218;-77
2022/11/21 03:59:05;;;;;;;6.67;2.97;;;7.20;99.90;;;;;;5112472;28;20160;-76
2022/11/21 04:01:32;;;;;;;6.83;1.77;;;7.20;99.90;;;;;;5112545;28;20181;-77
2022/11/21 04:03:57;;;;;;;2.20;1.73;;;7.20;99.90;;;;;;5112207;28;20172;-76
2022/11/21 04:06:23;;;;;;;4.77;3.67;;;7.20;99.90;;;;;;5112995;28;20415;-76
2022/11/21 04:08:49;;;;;;;13.93;3.00;;;7.20;99.90;;;;;;5112006;28;20200;-76
2022/11/21 04:11:14;;;;;;;14.50;2.53;;;7.20;99.90;;;;;;5113260;28;20418;-75
2022/11/21 04:13:40;;;;;;;5.77;2.87;;;7.20;99.90;;;;;;5113638;28;20164;-77
2022/11/21 04:16:06;;;;;;;7.90;3.00;;;7.20;99.90;;;;;;5112016;28;20525;-74
2022/11/21 04:18:33;;;;;;;6.07;2.67;;;7.30;99.90;;;;;;5112615;28;20525;-74
2022/11/21 04:21:03;;;;;;;5.37;2.63;;;7.30;99.90;;;;;;5112315;28;20177;-73
2022/11/21 04:23:29;;;;;;;6.13;2.50;;;7.30;99.90;;;;;;5112408;28;20434;-73
2022/11/21 04:25:54;;;;;;;4.47;3.10;;;7.30;99.90;;;;;;5111013;28;20415;-73
2022/11/21 04:28:20;;;;;;;5.17;2.50;;;7.30;99.90;;;;;;5112444;28;20701;-73
2022/11/21 04:30:46;;;;;;;9.60;4.00;;;7.30;99.90;;;;;;5112502;28;20172;-74
2022/11/21 04:33:14;;;;;;;4.07;2.53;;;7.30;99.90;;;;;;5110897;28;20431;-74
2022/11/21 04:35:41;;;;;;;7.93;2.70;;;7.30;99.90;;;;;;5110802;28;20168;-73
2022/11/21 04:38:07;;;;;;;12.17;2.83;;;7.20;99.90;;;;;;5112477;28;20410;-76
2022/11/21 04:40:34;;;;;;;8.37;3.73;;;7.20;99.90;;;;;;5112354;28;20406;-74
2022/11/21 04:42:59;;;;;;;4.87;3.63;;;7.20;99.90;;;;;;5112336;28;20207;-75
2022/11/21 04:45:25;;;;;;;4.47;3.10;;;7.10;99.90;;;;;;5111889;28;20915;-74
2022/11/21 04:47:50;;;;;;;6.80;2.67;;;7.20;99.90;;;;;;5111098;28;20185;-75
2022/11/21 04:50:17;;;;;;;5.40;2.50;;;7.10;99.90;;;;;;5112281;28;20622;-75
2022/11/21 04:52:49;;;;;;;7.73;3.30;;;7.10;99.90;;;;;;5111246;28;20185;-75
2022/11/21 04:55:15;;;;;;;11.53;3.70;;;7.20;99.90;;;;;;5112685;28;20398;-74
2022/11/21 04:57:41;;;;;;;9.53;3.93;;;7.20;99.90;;;;;;5112138;28;20808;-75
2022/11/21 05:00:07;;;;;;;12.33;4.43;;;7.10;99.90;;;;;;5112126;28;20169;-74
2022/11/21 05:02:32;;;;;;;10.43;3.87;;;7.10;99.90;;;;;;5110672;28;20197;-74
2022/11/21 05:04:58;;;;;;;11.43;6.83;;;7.10;99.90;;;;;;5111782;28;20403;-75
2022/11/21 05:07:24;;;;;;;21.43;9.97;;;7.10;99.90;;;;;;5112025;28;20712;-76
2022/11/21 05:09:49;;;;;;;12.60;3.73;;;7.20;99.90;;;;;;5110580;28;20169;-77
2022/11/21 05:14:59;;;;;;;5.27;3.37;;;7.20;99.90;;;;;;5111824;28;20289;-76
2022/11/21 05:17:27;;;;;;;6.63;3.80;;;7.10;99.90;;;;;;5111916;28;20429;-76
2022/11/21 05:19:53;;;;;;;5.97;3.73;;;7.20;99.90;;;;;;5111320;28;20225;-76
2022/11/21 05:22:18;;;;;;;4.97;3.70;;;7.20;99.90;;;;;;5114333;28;20453;-77
2022/11/21 05:24:44;;;;;;;5.13;3.00;;;7.20;99.90;;;;;;5115638;28;20169;-76
2022/11/21 05:27:10;;;;;;;8.77;4.10;;;7.10;99.90;;;;;;5114556;28;20217;-76
2022/11/21 05:29:36;;;;;;;6.03;3.77;;;7.10;99.90;;;;;;5115792;28;20490;-76
2022/11/21 05:32:01;;;;;;;6.00;4.00;;;7.20;99.90;;;;;;5115381;28;20195;-76
2022/11/21 05:34:27;;;;;;;8.90;4.47;;;7.10;99.90;;;;;;5114485;28;20179;-76
2022/11/21 05:36:57;;;;;;;5.77;3.60;;;7.10;99.90;;;;;;5115344;28;20715;-76
2022/11/21 05:39:23;;;;;;;7.60;4.40;;;7.10;99.90;;;;;;5114838;28;20654;-76
2022/11/21 05:41:49;;;;;;;9.40;4.63;;;7.10;99.90;;;;;;5115151;28;20445;-76
2022/11/21 05:44:14;;;;;;;6.23;3.73;;;7.00;99.90;;;;;;5113779;28;20172;-77
2022/11/21 05:46:40;;;;;;;10.80;4.77;;;7.00;99.90;;;;;;5114001;28;20177;-76
2022/11/21 05:49:05;;;;;;;12.90;5.37;;;7.00;99.90;;;;;;5115163;28;20536;-76
2022/11/21 05:51:31;;;;;;;16.23;4.73;;;7.00;99.90;;;;;;5115216;28;20552;-77
2022/11/21 05:53:58;;;;;;;8.87;4.33;;;6.90;99.90;;;;;;5115311;28;20176;-76
2022/11/21 05:56:23;;;;;;;16.40;5.13;;;6.90;99.90;;;;;;5118233;28;20188;-76
2022/11/21 05:58:49;;;;;;;12.23;4.40;;;6.90;99.90;;;;;;5115422;28;20406;-77
2022/11/21 06:03:25;;;;;;;9.43;5.23;;;7.00;99.90;;;;;;5116911;28;20196;-77
2022/11/21 06:04:01;;;;;;;9.63;5.40;;;7.00;99.90;;;;;;5117396;28;20183;-77
2022/11/21 06:06:26;;;;;;;11.50;5.10;;;7.00;99.90;;;;;;5115791;28;20407;-76
2022/11/21 06:08:52;;;;;;;5.87;4.20;;;7.10;99.90;;;;;;5115564;28;20207;-75
2022/11/21 06:11:17;;;;;;;7.20;5.50;;;7.10;99.90;;;;;;5117795;28;20603;-77
2022/11/21 06:13:43;;;;;;;6.20;4.97;;;7.20;99.90;;;;;;5120448;28;20275;-77
2022/11/21 06:16:11;;;;;;;7.07;5.40;;;7.30;99.90;;;;;;5117296;28;20663;-76
2022/11/21 06:18:39;;;;;;;13.40;7.10;;;7.30;99.90;;;;;;5114810;28;20411;-76
2022/11/21 06:21:08;;;;;;;15.80;6.50;;;7.30;99.90;;;;;;5113965;28;20467;-75
2022/11/21 06:23:34;;;;;;;7.50;5.80;;;7.30;99.90;;;;;;5113904;28;20811;-77
2022/11/21 06:26:02;;;;;;;12.50;6.40;;;7.30;99.90;;;;;;5113025;28;20426;-77
2022/11/21 06:28:36;;;;;;;10.13;6.20;;;7.30;99.90;;;;;;5114590;28;20481;-76
2022/11/21 06:31:08;;;;;;;10.00;6.73;;;7.20;99.90;;;;;;5114130;28;20422;-74
2022/11/21 06:33:35;;;;;;;11.17;7.07;;;7.30;99.90;;;;;;5114174;28;20418;-74
2022/11/21 06:36:05;;;;;;;10.33;6.07;;;7.30;99.90;;;;;;5113903;28;20507;-74
2022/11/21 06:38:31;;;;;;;7.90;5.03;;;7.30;99.90;;;;;;5112862;28;20421;-75
2022/11/21 06:40:57;;;;;;;14.33;4.80;;;7.20;99.90;;;;;;5114223;28;20427;-75
2022/11/21 06:43:23;;;;;;;8.70;5.03;;;7.20;99.90;;;;;;5113438;28;20426;-76
2022/11/21 06:45:48;;;;;;;8.70;5.20;;;7.10;99.90;;;;;;5113743;28;20919;-74
2022/11/21 06:48:14;;;;;;;8.83;4.10;;;7.00;99.90;;;;;;5113994;28;20242;-74
2022/11/21 06:50:39;;;;;;;14.50;4.73;;;7.00;99.90;;;;;;5112981;28;20173;-75
2022/11/21 06:53:05;;;;;;;5.77;4.20;;;7.00;99.90;;;;;;5113633;28;20561;-74
2022/11/21 06:55:31;;;;;;;6.43;5.30;;;7.00;99.90;;;;;;5113625;28;20230;-75
2022/11/21 06:57:58;;;;;;;8.50;4.80;;;6.90;99.90;;;;;;5113620;28;20422;-74
2022/11/21 07:00:24;;;;;;;6.73;4.37;;;6.90;99.90;;;;;;5112593;28;20649;-75
2022/11/21 07:02:50;;;;;;;15.80;5.10;;;6.90;99.90;;;;;;5113830;28;20427;-74
2022/11/21 07:05:16;;;;;;;7.60;4.37;;;7.00;99.90;;;;;;5113411;28;20419;-74
2022/11/21 07:07:41;;;;;;;14.30;5.37;;;6.90;99.90;;;;;;5113529;28;20304;-75
2022/11/21 07:10:07;;;;;;;7.20;5.40;;;7.00;99.90;;;;;;5113843;28;20188;-73
2022/11/21 07:15:18;;;;;;;12.30;4.50;;;7.10;99.90;;;;;;5113429;28;20794;-74
2022/11/21 07:17:43;;;;;;;11.30;4.20;;;7.10;99.90;;;;;;5113119;28;20426;-74
2022/11/21 07:20:10;;;;;;;6.00;3.73;;;7.10;99.90;;;;;;5112934;28;20235;-74
2022/11/21 07:22:35;;;;;;;6.00;4.10;;;7.10;99.90;;;;;;5113060;28;20678;-74
2022/11/21 07:25:01;;;;;;;5.47;4.10;;;7.10;99.90;;;;;;5113219;28;20410;-74
2022/11/21 07:27:26;;;;;;;8.13;4.03;;;7.20;99.90;;;;;;5113089;28;20307;-75
2022/11/21 07:29:52;;;;;;;10.70;4.23;;;7.20;99.90;;;;;;5112842;28;20173;-76
2022/11/21 07:32:17;;;;;;;5.70;4.20;;;7.30;99.90;;;;;;5113370;28;20181;-76
2022/11/21 07:34:43;;;;;;;6.77;3.63;;;7.20;99.90;;;;;;5112872;28;20168;-76
2022/11/21 07:37:08;;;;;;;12.53;4.10;;;7.30;99.90;;;;;;5113372;28;20161;-75
2022/11/21 07:39:34;;;;;;;9.40;4.97;;;7.20;99.90;;;;;;5112958;28;20169;-77
2022/11/21 07:41:59;;;;;;;7.90;4.80;;;7.20;99.90;;;;;;5112768;28;20200;-76
2022/11/21 07:44:25;;;;;;;8.50;4.30;;;7.20;99.90;;;;;;5112127;28;20180;-76
2022/11/21 07:46:54;;;;;;;5.63;3.60;;;7.20;99.90;;;;;;5110635;28;20226;-77
2022/11/21 07:49:20;;;;;;;5.03;4.40;;;7.20;99.90;;;;;;5112729;28;20173;-76
2022/11/21 07:51:45;;;;;;;7.67;3.80;;;7.20;99.90;;;;;;5111556;28;20434;-77
2022/11/21 07:54:11;;;;;;;7.63;5.00;;;7.10;99.90;;;;;;5111576;28;20168;-75
2022/11/21 07:56:36;;;;;;;7.17;4.90;;;7.10;99.90;;;;;;5112327;28;20188;-77
2022/11/21 07:59:02;;;;;;;14.33;4.93;;;7.00;99.90;;;;;;5112938;28;20354;-77
2022/11/21 08:01:27;;;;;;;7.07;5.17;;;7.00;99.90;;;;;;5112837;28;20677;-76
2022/11/21 08:03:52;;;;;;;4.73;4.20;;;7.00;99.90;;;;;;5111594;28;20246;-76
2022/11/21 08:06:18;;;;;;;8.57;5.10;;;7.00;99.90;;;;;;5112707;28;20199;-76
2022/11/21 08:08:44;;;;;;;6.47;4.83;;;7.10;99.90;;;;;;5112517;28;20192;-76
2022/11/21 08:11:09;;;;;;;9.23;5.80;;;7.10;99.90;;;;;;5112719;28;20161;-76
2022/11/21 08:13:35;;;;;;;9.20;4.10;;;7.20;99.90;;;;;;5111474;28;20168;-77
2022/11/21 08:16:04;;;;;;;6.90;3.60;;;7.30;99.90;;;;;;5112714;28;20161;-77
2022/11/21 08:18:30;;;;;;;5.47;4.33;;;7.30;99.90;;;;;;5112340;28;20243;-76
2022/11/21 08:20:56;;;;;;;9.80;6.37;;;7.30;99.90;;;;;;5112617;28;20811;-77
2022/11/21 08:23:21;;;;;;;16.60;6.63;;;7.30;99.90;;;;;;5112422;28;20548;-77
2022/11/21 08:25:47;;;;;;;8.87;4.63;;;7.30;99.90;;;;;;5110983;28;20171;-74
2022/11/21 08:28:12;;;;;;;8.90;4.60;;;7.30;99.90;;;;;;5112417;28;20279;-74
2022/11/21 08:30:39;;;;;;;5.07;4.43;;;7.30;99.90;;;;;;5112192;28;20578;-76
2022/11/21 08:33:05;;;;;;;7.57;5.93;;;7.30;99.90;;;;;;5112295;28;20273;-73
2022/11/21 08:35:31;;;;;;;10.27;5.40;;;7.30;99.90;;;;;;5112143;28;20464;-75
2022/11/21 08:37:58;;;;;;;9.00;5.33;;;7.30;99.90;;;;;;5112424;28;20410;-74
2022/11/21 08:40:25;;;;;;;6.13;4.53;;;7.30;99.90;;;;;;5112370;28;20169;-74
2022/11/21 08:43:16;;;;;;;8.00;5.57;;;7.30;99.90;;;;;;5110715;28;20515;-75
2022/11/21 08:45:42;;;;;;;6.53;5.73;;;7.30;99.90;;;;;;5089428;28;20514;-73
2022/11/21 08:48:10;;;;;;;8.70;4.87;;;7.30;99.90;;;;;;5091886;28;20542;-75
2022/11/21 08:50:35;;;;;;;8.87;6.70;;;7.40;99.90;;;;;;5091923;28;20162;-74
2022/11/21 08:53:01;;;;;;;10.53;6.30;;;7.40;99.90;;;;;;5103741;28;20433;-74
2022/11/21 08:55:28;;;;;;;9.10;4.80;;;7.50;99.90;;;;;;5113885;28;20210;-75
2022/11/21 08:57:53;;;;;;;8.50;5.97;;;7.60;99.90;;;;;;5114811;28;20505;-75
2022/11/21 09:00:19;;;;;;;10.20;6.23;;;7.60;99.90;;;;;;5116033;28;20503;-75
2022/11/21 09:02:44;;;;;;;6.70;6.00;;;7.70;99.90;;;;;;5114753;28;20250;-73
2022/11/21 09:05:10;;;;;;;8.30;4.97;;;7.80;99.90;;;;;;5115976;28;20169;-74
2022/11/21 09:07:35;;;;;;;9.83;6.50;;;7.90;99.90;;;;;;5116012;28;20196;-74
2022/11/21 09:10:01;;;;;;;15.67;6.47;;;8.00;99.90;;;;;;5115908;28;20531;-75
2022/11/21 09:12:26;;;;;;;10.23;6.30;;;8.00;99.90;;;;;;5116002;28;20193;-74
2022/11/21 09:20:21;;;;;;;8.30;5.20;;;8.70;99.90;;;;;;5115285;28;21153;-75
2022/11/21 09:22:46;;;;;;;7.60;4.90;;;9.30;99.90;;;;;;5115527;28;20445;-75
2022/11/21 09:25:12;;;;;;;7.63;5.00;;;9.90;99.90;;;;;;5114211;28;20645;-76
2022/11/21 09:27:37;;;;;;;4.50;4.10;;;10.60;99.90;;;;;;5114382;28;20200;-76
2022/11/21 09:30:03;;;;;;;8.10;3.57;;;11.30;99.90;;;;;;5115694;28;20222;-77
2022/11/21 09:32:29;;;;;;;4.03;3.40;;;11.90;99.90;;;;;;5114155;28;20189;-77
2022/11/21 09:34:55;;;;;;;9.13;4.37;;;12.50;99.90;;;;;;5115351;28;20410;-77
2022/11/21 09:37:20;;;;;;;3.53;3.10;;;13.10;99.90;;;;;;5115667;28;20956;-77
2022/11/21 09:39:46;;;;;;;3.70;3.27;;;13.50;99.90;;;;;;5115650;27;20169;-76
2022/11/21 09:42:34;;;;;;;4.03;3.03;;;13.60;99.90;;;;;;5115483;28;20572;-74
2022/11/21 09:45:08;;;;;;;6.10;2.77;;;13.50;99.90;;;;;;5113813;28;20173;-76
2022/11/21 09:47:39;;;;;;;7.07;3.40;;;13.60;99.90;;;;;;5114150;28;20462;-76
2022/11/21 09:50:17;;;;;;;4.00;2.97;;;14.20;99.90;;;;;;5114185;28;20776;-75
2022/11/21 09:52:46;;;;;;;4.40;3.00;;;14.90;99.90;;;;;;5115106;28;20460;-77
2022/11/21 09:55:26;;;;;;;4.30;2.50;;;15.50;99.90;;;;;;5113744;28;20422;-77
2022/11/21 09:57:52;;;;;;;6.40;2.93;;;15.50;99.90;;;;;;5115441;28;20417;-77
2022/11/21 10:00:22;;;;;;;3.93;2.70;;;14.60;99.90;;;;;;5115286;28;20414;-77
2022/11/21 10:02:50;;;;;;;3.83;2.30;;;14.90;99.90;;;;;;5113795;28;20193;-77
2022/11/21 10:05:19;;;;;;;2.17;1.97;;;15.50;99.90;;;;;;5115661;28;20920;-77
2022/11/21 10:07:45;;;;;;;4.20;2.30;;;16.20;99.90;;;;;;5114773;28;20450;-76
2022/11/21 10:10:49;;;;;;;3.83;2.00;;;16.80;99.90;;;;;;5115803;28;20406;-77
2022/11/21 10:13:32;;;;;;;7.03;1.90;;;17.50;99.90;;;;;;5115654;28;20195;-77
2022/11/21 10:16:25;;;;;;;3.07;1.70;;;18.00;98.50;;;;;;5116234;28;20398;-77
2022/11/21 10:19:00;;;;;;;3.00;1.83;;;18.50;97.60;;;;;;5116513;28;20403;-76
2022/11/21 10:21:47;;;;;;;3.37;1.43;;;19.10;94.00;;;;;;5115265;28;20962;-77
2022/11/21 10:24:33;;;;;;;3.07;1.43;;;19.70;88.70;;;;;;5095011;28;20412;-75
2022/11/21 10:27:03;;;;;;;3.43;2.40;;;20.40;83.30;;;;;;5094829;28;20873;-75
2022/11/21 10:29:45;;;;;;;5.67;2.00;;;20.10;77.40;;;;;;5094002;28;20408;-77
2022/11/21 10:32:25;;;;;;;5.93;1.73;;;19.50;77.10;;;;;;5094520;28;20435;-78
2022/11/21 10:34:57;;;;;;;4.13;1.70;;;19.00;81.60;;;;;;5106804;28;20499;-77
2022/11/21 10:37:44;;;;;;;3.73;1.60;;;18.60;80.20;;;;;;5116020;28;20403;-77
2022/11/21 10:40:30;;;;;;;2.27;1.30;;;17.50;82.70;;;;;;5114381;28;20402;-74
2022/11/21 10:46:20;;;;;;;6.50;1.40;;;16.80;92.10;;;;;;5113740;28;20418;-75
2022/11/21 10:49:00;;;;;;;3.27;1.07;;;16.40;90.10;;;;;;5114109;28;20465;-74
2022/11/21 10:51:57;;;;;;;4.07;1.83;;;16.80;92.60;;;;;;5114235;28;20195;-75
2022/11/21 10:54:32;;;;;;;7.00;1.70;;;17.80;88.00;;;;;;5113871;28;20403;-75
2022/11/21 10:57:16;;;;;;;1.77;1.20;;;18.80;84.70;;;;;;5113842;28;20468;-75
2022/11/21 11:00:10;;;;;;;2.13;1.17;;;18.60;80.50;;;;;;5113792;28;20405;-74
2022/11/21 11:02:35;;;;;;;3.47;1.10;;;17.70;81.10;;;;;;5113951;28;20462;-74
2022/11/21 11:05:16;;;;;;;1.93;1.50;;;18.20;83.30;;;;;;5113565;28;20402;-75
2022/11/21 11:07:42;;;;;;;3.20;1.37;;;18.80;81.20;;;;;;5113667;28;20189;-75
2022/11/21 11:10:22;;;;;;;1.90;1.27;;;19.10;80.80;;;;;;5114050;28;20776;-75
2022/11/21 11:13:49;;;;;;;4.43;1.63;;;20.10;79.70;;;;;;5114936;28;20185;-78
2022/11/21 11:16:09;;;;;;;2.20;1.00;;;20.00;70.60;;;;;;5104524;28;20456;-76
2022/11/21 11:18:40;;;;;;;2.03;1.10;;;20.00;68.80;;;;;;5113325;28;20506;-75
2022/11/21 11:21:16;;;;;;;1.67;1.10;;;20.00;68.40;;;;;;5113460;28;20414;-76
2022/11/21 11:23:41;;;;;;;2.13;1.10;;;20.20;68.30;;;;;;5113633;28;20772;-76
2022/11/21 11:26:26;;;;;;;2.60;1.10;;;20.90;63.80;;;;;;5113240;28;20464;-76
2022/11/21 11:28:52;;;;;;;1.60;1.40;;;21.20;61.70;;;;;;5113428;28;20196;-76
2022/11/21 11:31:17;;;;;;;2.03;1.50;;;21.20;61.60;;;;;;5113149;27;20441;-76
2022/11/21 11:33:46;;;;;;;1.87;1.10;;;21.10;60.00;;;;;;5113226;28;20538;-75
2022/11/21 11:36:27;;;;;;;2.00;1.40;;;20.30;60.00;;;;;;5112957;28;20197;-76
2022/11/21 11:38:58;;;;;;;1.73;1.40;;;19.90;62.30;;;;;;5113731;28;21018;-77
2022/11/21 11:47:29;;;;;;;2.33;1.10;;;19.80;62.90;;;;;;5113647;28;20442;-76
2022/11/21 11:47:29;;;;;;;1.53;0.90;;;20.30;61.20;;;;;;5113171;28;20454;-75
2022/11/21 11:50:12;;;;;;;1.30;1.00;;;20.50;60.50;;;;;;5112886;28;20414;-73
2022/11/21 11:52:52;;;;;;;2.50;1.67;;;20.60;60.10;;;;;;5112838;28;20426;-75
2022/11/21 11:55:24;;;;;;;7.83;1.93;;;19.80;59.10;;;;;;5112521;28;20421;-75
2022/11/21 11:57:52;;;;;;;1.77;1.00;;;18.60;61.00;;;;;;5112975;28;20411;-74
2022/11/21 12:00:29;;;;;;;2.00;1.47;;;17.50;62.60;;;;;;5112778;28;20517;-75
2022/11/21 12:03:17;;;;;;;1.50;1.00;;;17.40;65.80;;;;;;5112911;28;20418;-75
2022/11/21 12:06:14;;;;;;;1.40;1.00;;;17.90;65.60;;;;;;5111155;28;20410;-74
2022/11/21 12:08:45;;;;;;;1.50;1.10;;;18.40;64.60;;;;;;5112283;28;20458;-75
2022/11/21 12:17:09;;;;;;;1.87;1.10;;;18.30;62.00;;;;;;5112714;28;20901;-76
2022/11/21 12:19:36;;;;;;;3.10;2.53;;;18.30;61.30;;;;;;5112409;28;20410;-75
2022/11/21 12:22:05;;;;;;;2.13;1.17;;;18.60;63.10;;;;;;5112368;28;20443;-75
2022/11/21 12:24:32;;;;;;;1.40;1.13;;;18.90;63.80;;;;;;5111421;28;20406;-78
2022/11/21 12:27:26;;;;;;;3.17;2.10;;;18.70;60.10;;;;;;5114366;28;20406;-77
2022/11/21 12:29:57;;;;;;;3.03;1.37;;;18.30;60.30;;;;;;5112582;28;20414;-76
2022/11/21 12:33:04;;;;;;;2.70;1.20;;;18.10;60.80;;;;;;5112444;28;20448;-76
2022/11/21 12:35:49;;;;;;;1.30;1.00;;;17.80;60.80;;;;;;5101113;28;20443;-75
2022/11/21 12:38:50;;;;;;;3.97;1.23;;;17.60;64.00;;;;;;5111859;28;20434;-74
2022/11/21 12:45:13;;;;;;;2.90;1.23;;;16.40;63.20;;;;;;5112069;28;20905;-75
2022/11/21 12:56:48;;;;;;;1.50;1.10;;;14.80;67.40;;;;;;5111867;28;21005;-75
2022/11/21 12:59:14;;;;;;;1.77;1.03;;;14.50;69.90;;;;;;5111853;28;20933;-75
2022/11/21 13:01:55;;;;;;;3.67;1.03;;;13.80;71.60;;;;;;5112270;28;20429;-77
2022/11/21 13:04:27;;;;;;;3.73;1.30;;;13.50;73.80;;;;;;5112628;28;20409;-75
2022/11/21 13:06:55;;;;;;;2.30;1.20;;;13.10;75.10;;;;;;5112301;28;20412;-75
2022/11/21 13:09:23;;;;;;;3.67;1.23;;;12.90;79.70;;;;;;5112130;28;20457;-76
2022/11/21 13:12:36;;;;;;;1.73;0.90;;;12.50;82.80;;;;;;5111736;28;20430;-76
2022/11/21 13:15:08;;;;;;;4.13;1.00;;;12.30;91.10;;;;;;5103241;28;20422;-75
2022/11/21 13:17:40;;;;;;;3.90;1.10;;;11.90;99.10;;;;;;5110787;28;20411;-75
2022/11/21 13:20:27;;;;;;;1.10;0.70;;;11.60;99.90;;;;;;5111853;28;20402;-76
2022/11/21 13:22:58;;;;;;;2.10;1.20;;;11.20;99.90;;;;;;5111780;28;20954;-75
2022/11/21 13:25:45;;;;;;;1.63;1.20;;;11.00;99.90;;;;;;5111733;28;20395;-74
2022/11/21 13:28:10;;;;;;;2.40;0.97;;;10.90;99.90;;;;;;5111921;28;20446;-74
2022/11/21 13:30:55;;;;;;;1.00;0.70;;;11.00;99.90;;;;;;5111780;28;20503;-74
2022/11/21 13:33:36;;;;;;;3.30;0.80;;;10.90;99.90;;;;;;5111904;28;20212;-76
2022/11/21 13:36:08;;;;;;;2.70;1.23;;;11.00;99.90;;;;;;5111616;28;20430;-75
2022/11/21 13:38:55;;;;;;;2.10;0.97;;;10.90;99.90;;;;;;5111863;28;20485;-75
2022/11/21 13:44:32;;;;;;;5.00;1.70;;;10.90;99.90;;;;;;5116045;28;20963;-77